Big Lake, MN (55309)

9:22 AM CDT on August 29, 2015 (GMT -0500)
Nelson Sub on Euclid | | Change Station
CLOSE
Current Station
Personal Weather Station
Location: Big Lake, MN
Elevation: 942 ft
Nearby Weather Stations

Elev 942 ft 45.34 °N, 93.76 °W | Updated 2 minutes ago

Clear
Clear
60.4 °F
Feels Like 60.4 °F
N
0.0
Wind Variable Wind from SSW

Today
High -- | Low -- °F
--% Chance of Precip.
Yesterday
High -- | Low -- °F
Precip. -- in
6:32 AM 7:58 PM
Full, 100% visible
Pressure 30.07 in
Visibility 5.0 miles
Clouds Mostly Cloudy 400 ft
Dew Point 55 °F
Humidity 83%
Rainfall 0.00 in
Snow Depth Not available.
UV 1 out of 12
Pollen 9.20 out of 12
Air Quality Not available.
Flu Activity Not available.
METAR KCFE 291414Z AUTO 18003KT 5SM BR BKN004 15/13 A3007 RMK AO2 T01500131
Pressure 30.07 in
Visibility 5.0 miles
Clouds Mostly Cloudy 400 ft
Dew Point 55 °F
Humidity 83%
Rainfall 0.00 in
Snow Depth Not available.
UV 1 out of 12
Pollen 9.20 out of 12
Air Quality Not available.
Flu Activity Not available.
METAR KCFE 291414Z AUTO 18003KT 5SM BR BKN004 15/13 A3007 RMK AO2 T01500131

10-Day Weather Forecast

×

Almanac

Astronomy

Aug. 29, 2015 Rise Set
Actual Time
Civil Twilight
Nautical Twilight
Astronomical Twilight
Moon
Length of Visible Light
Length of Day
Tomorrow will be .
, % of the Moon is Illuminated

Today's Extremes

State Highs State Lows

Community

WunderPhotos

Upload Photos

1,850,706 photos uploaded!

WunderBlogs® & News

Nearby

Air Quality

  Air Quality AQ Index Pollutant
Not available.

Snow Depth

Station Depth Elevation

Earthquake Activity

City Distance Mag. Time & Date
Minimum magnitude displayed is 2.5.

Coastal Water Temperatures

Place Temperature

Stations

Nearby Weather Stations

Station Location Temp. Windchill Dew Point Humidity Wind Precip. Elev Updated Type